createdAt,value
2018-10-05T00:01:26.727Z,85.76
2018-10-05T00:04:30.405Z,86.78
2018-10-05T00:07:36.814Z,86.67
2018-10-05T00:10:40.402Z,86.49
2018-10-05T00:13:43.950Z,85.42
2018-10-05T00:16:47.514Z,84.88
2018-10-05T00:19:51.454Z,84.87
2018-10-05T00:22:55.043Z,84.64
2018-10-05T00:25:58.645Z,85.72
2018-10-05T00:29:02.434Z,85.95
2018-10-05T00:32:06.131Z,86.21
2018-10-05T00:35:09.659Z,87.19
2018-10-05T00:38:13.180Z,87.95
2018-10-05T00:41:16.721Z,88.60
2018-10-05T00:44:20.304Z,88.94
2018-10-05T00:47:23.832Z,89.39
2018-10-05T00:50:27.434Z,89.87
2018-10-05T00:53:31.080Z,89.74
2018-10-05T00:56:34.641Z,88.04
2018-10-05T00:59:38.226Z,88.38
2018-10-05T01:02:41.766Z,89.05
2018-10-05T01:05:45.487Z,89.90
2018-10-05T01:08:49.121Z,88.90
2018-10-05T01:11:52.662Z,89.07
2018-10-05T01:14:56.262Z,89.39
2018-10-05T01:17:59.785Z,90.35
2018-10-05T01:21:03.505Z,90.14
2018-10-05T01:24:07.155Z,91.32
2018-10-05T01:27:10.867Z,91.06
2018-10-05T01:30:14.516Z,91.77
2018-10-05T01:33:18.047Z,92.19
2018-10-05T01:36:21.522Z,92.42
2018-10-05T01:39:25.146Z,92.48
2018-10-05T01:42:29.000Z,92.77
2018-10-05T01:45:32.550Z,92.90
2018-10-05T01:48:36.193Z,93.03
2018-10-05T01:51:39.717Z,93.61
2018-10-05T01:54:43.391Z,93.38
2018-10-05T01:57:47.036Z,93.62
2018-10-05T02:00:50.518Z,93.66
2018-10-05T02:03:54.131Z,93.71
2018-10-05T02:06:57.750Z,94.10
2018-10-05T02:10:01.277Z,94.13
2018-10-05T02:13:04.823Z,94.48
2018-10-05T02:16:08.737Z,94.35
2018-10-05T02:19:12.372Z,94.00
2018-10-05T02:22:16.036Z,94.06
2018-10-05T02:25:19.618Z,93.43
2018-10-05T02:28:23.229Z,93.06
2018-10-05T02:31:26.811Z,92.13
2018-10-05T02:34:30.398Z,91.41
2018-10-05T02:37:33.931Z,91.44
2018-10-05T02:40:37.558Z,92.06
2018-10-05T02:43:41.123Z,92.03
2018-10-05T02:46:44.642Z,92.25
2018-10-05T02:49:48.268Z,92.00
2018-10-05T02:52:51.955Z,91.90
2018-10-05T02:55:55.427Z,91.44
2018-10-05T02:58:58.973Z,91.06
2018-10-05T03:02:13.517Z,91.54
2018-10-05T03:05:17.131Z,91.73
2018-10-05T03:08:20.617Z,91.21
2018-10-05T03:11:24.188Z,91.15
2018-10-05T03:14:27.823Z,91.27
2018-10-05T03:17:31.320Z,91.94
2018-10-05T03:20:34.833Z,91.74
2018-10-05T03:23:38.628Z,91.20
2018-10-05T03:26:42.271Z,91.43
2018-10-05T03:29:45.973Z,91.78
2018-10-05T03:32:49.546Z,91.43
2018-10-05T03:35:53.142Z,91.90
2018-10-05T03:38:56.685Z,92.30
2018-10-05T03:42:00.306Z,92.36
2018-10-05T03:45:03.875Z,91.85
2018-10-05T03:48:07.458Z,91.58
2018-10-05T03:51:11.058Z,91.48
2018-10-05T03:54:14.592Z,91.71
2018-10-05T03:57:18.184Z,91.39
2018-10-05T04:00:21.802Z,91.97
2018-10-05T04:03:25.335Z,92.12
2018-10-05T04:06:28.944Z,92.67
2018-10-05T04:09:32.471Z,91.90
2018-10-05T04:12:36.197Z,91.95
2018-10-05T04:15:39.757Z,91.84
2018-10-05T04:18:43.298Z,92.13
2018-10-05T04:21:46.989Z,92.42
2018-10-05T04:24:50.529Z,93.06
2018-10-05T04:27:54.156Z,93.29
2018-10-05T04:30:57.725Z,93.58
2018-10-05T04:34:01.326Z,93.44
2018-10-05T04:37:05.087Z,92.69
2018-10-05T04:40:08.637Z,93.02
2018-10-05T04:43:12.292Z,92.92
2018-10-05T04:46:15.799Z,93.25
2018-10-05T04:49:19.448Z,94.03
2018-10-05T04:52:23.047Z,94.31
2018-10-05T04:55:26.613Z,94.61
2018-10-05T04:58:30.199Z,94.67
2018-10-05T05:01:33.793Z,94.81
2018-10-05T05:04:37.312Z,95.42
2018-10-05T05:07:40.793Z,95.38
2018-10-05T05:10:44.275Z,95.43
2018-10-05T05:13:47.973Z,95.51
2018-10-05T05:16:51.469Z,95.74
2018-10-05T05:19:55.185Z,95.64
2018-10-05T05:22:58.869Z,95.76
2018-10-05T05:26:02.428Z,95.43
2018-10-05T05:29:06.413Z,95.60
2018-10-05T05:32:09.987Z,96.06
2018-10-05T05:35:13.529Z,96.13
2018-10-05T05:38:17.055Z,95.99
2018-10-05T05:41:20.573Z,95.06
2018-10-05T05:44:24.153Z,94.79
2018-10-05T05:47:27.695Z,94.40
2018-10-05T05:50:31.300Z,93.65
2018-10-05T05:53:34.989Z,92.45
2018-10-05T05:56:38.598Z,92.28
2018-10-05T05:59:42.113Z,91.56
2018-10-05T06:02:45.648Z,90.03
2018-10-05T06:05:49.275Z,88.23
2018-10-05T06:08:52.807Z,87.39
2018-10-05T06:11:56.324Z,86.43
2018-10-05T06:14:59.921Z,85.38
2018-10-05T06:18:03.550Z,86.45
2018-10-05T06:21:07.287Z,85.85
2018-10-05T06:24:10.907Z,86.01
2018-10-05T06:27:14.534Z,86.24
2018-10-05T06:30:18.111Z,85.66
2018-10-05T06:33:21.844Z,85.92
2018-10-05T06:36:25.314Z,85.55
2018-10-05T06:39:28.802Z,84.97
2018-10-05T06:42:32.393Z,83.12
2018-10-05T06:45:35.931Z,85.38
2018-10-05T06:48:39.724Z,84.34
2018-10-05T06:51:43.529Z,82.19
2018-10-05T06:54:47.154Z,81.80
2018-10-05T06:57:50.615Z,82.01
2018-10-05T07:00:54.214Z,81.11
2018-10-05T07:03:57.811Z,80.74
2018-10-05T07:07:01.316Z,80.54
2018-10-05T07:10:05.162Z,79.38
2018-10-05T07:13:08.801Z,79.67
2018-10-05T07:16:12.425Z,78.52
2018-10-05T07:19:15.935Z,80.15
2018-10-05T07:22:19.543Z,79.26
2018-10-05T07:25:23.166Z,78.00
2018-10-05T07:28:26.908Z,77.80
2018-10-05T07:31:30.375Z,77.27
2018-10-05T07:34:34.012Z,77.43
2018-10-05T07:37:37.524Z,77.04
2018-10-05T07:40:41.034Z,77.71
2018-10-05T07:43:44.556Z,77.58
2018-10-05T07:46:48.157Z,79.58
2018-10-05T07:49:51.796Z,77.56
2018-10-05T07:52:55.359Z,76.45
2018-10-05T07:55:59.059Z,74.84
2018-10-05T07:59:02.726Z,76.81
2018-10-05T08:02:06.566Z,78.36
2018-10-05T08:05:10.105Z,76.80
2018-10-05T08:08:13.581Z,77.17
2018-10-05T08:11:17.507Z,77.00
2018-10-05T08:14:21.009Z,77.67
2018-10-05T08:17:24.546Z,75.90
2018-10-05T08:20:28.257Z,76.54
2018-10-05T08:23:32.023Z,76.99
2018-10-05T08:26:36.680Z,76.36
2018-10-05T08:29:40.195Z,76.00
2018-10-05T08:32:43.843Z,75.15
2018-10-05T08:35:47.401Z,76.02
2018-10-05T08:38:51.011Z,75.27
2018-10-05T08:41:54.710Z,75.10
2018-10-05T08:44:58.301Z,76.39
2018-10-05T08:48:01.811Z,74.50
2018-10-05T08:51:05.377Z,75.97
2018-10-05T08:54:09.468Z,75.30
2018-10-05T08:57:13.199Z,74.27
2018-10-05T09:00:16.903Z,75.13
2018-10-05T09:03:20.472Z,75.60
2018-10-05T09:06:24.017Z,74.57
2018-10-05T09:09:27.546Z,74.33
2018-10-05T09:12:31.135Z,74.67
2018-10-05T09:15:34.716Z,75.83
2018-10-05T09:18:38.586Z,74.93
2018-10-05T09:21:42.147Z,75.66
2018-10-05T09:24:45.665Z,73.27
2018-10-05T09:27:49.200Z,74.55
2018-10-05T09:30:52.918Z,74.88
2018-10-05T09:33:56.557Z,75.94
2018-10-05T09:37:00.191Z,77.23
2018-10-05T09:40:03.787Z,74.62
2018-10-05T09:43:07.431Z,75.55
2018-10-05T09:46:11.209Z,74.39
2018-10-05T09:49:14.831Z,73.90
2018-10-05T09:52:18.577Z,73.93
2018-10-05T09:55:22.272Z,74.60
2018-10-05T09:58:25.848Z,73.16
2018-10-05T10:01:34.656Z,72.08
2018-10-05T10:04:38.192Z,73.26
2018-10-05T10:07:41.838Z,70.47
2018-10-05T10:10:45.495Z,69.98
2018-10-05T10:13:49.129Z,72.59
2018-10-05T10:16:52.616Z,72.42
2018-10-05T10:19:56.247Z,70.35
2018-10-05T10:22:59.821Z,70.95
2018-10-05T10:26:03.482Z,70.27
2018-10-05T10:29:07.132Z,72.55
2018-10-05T10:32:10.519Z,71.76
2018-10-05T10:35:14.151Z,70.79
2018-10-05T10:38:17.786Z,70.10
2018-10-05T10:41:21.413Z,69.18
2018-10-05T10:44:24.978Z,69.37
2018-10-05T10:47:28.755Z,69.20
2018-10-05T10:50:32.302Z,68.47
2018-10-05T10:53:35.894Z,66.70
2018-10-05T10:56:39.469Z,70.92
2018-10-05T10:59:43.029Z,68.67
2018-10-05T11:02:46.552Z,69.58
2018-10-05T11:05:50.157Z,71.49
2018-10-05T11:08:53.679Z,67.07
2018-10-05T11:11:57.222Z,66.32
2018-10-05T11:15:00.789Z,69.80
2018-10-05T11:18:04.285Z,68.11
2018-10-05T11:21:08.008Z,70.75
2018-10-05T11:24:11.593Z,70.82
2018-10-05T11:27:15.205Z,68.48
2018-10-05T11:30:18.887Z,65.27
2018-10-05T11:33:22.388Z,68.57
2018-10-05T11:36:25.932Z,66.20
2018-10-05T11:39:29.534Z,63.54
2018-10-05T11:42:33.127Z,66.83
2018-10-05T11:45:36.837Z,70.18
2018-10-05T11:48:40.413Z,70.60
2018-10-05T11:51:44.085Z,64.82
2018-10-05T11:54:47.645Z,64.84
2018-10-05T11:57:51.328Z,61.42
2018-10-05T12:00:54.930Z,61.28
2018-10-05T12:03:58.498Z,61.33
2018-10-05T12:07:02.148Z,67.41
2018-10-05T12:10:06.014Z,65.16
2018-10-05T12:13:09.527Z,63.34
2018-10-05T12:16:13.133Z,62.64
2018-10-05T12:19:16.703Z,62.13
2018-10-05T12:22:20.510Z,61.46
2018-10-05T12:25:24.188Z,64.02
2018-10-05T12:28:27.739Z,62.25
2018-10-05T12:31:31.404Z,64.28
2018-10-05T12:34:35.010Z,63.45
2018-10-05T12:37:38.699Z,64.14
2018-10-05T12:40:42.374Z,61.11
2018-10-05T12:43:46.026Z,66.49
2018-10-05T12:46:49.558Z,64.15
2018-10-05T12:49:53.989Z,64.12
2018-10-05T12:52:57.815Z,66.30
2018-10-05T12:56:01.444Z,63.61
2018-10-05T12:59:05.068Z,60.74
2018-10-05T13:02:08.780Z,63.04
2018-10-05T13:05:12.348Z,60.18
2018-10-05T13:08:16.085Z,64.69
2018-10-05T13:11:19.665Z,64.10
2018-10-05T13:14:23.290Z,65.13
2018-10-05T13:17:27.099Z,62.57
2018-10-05T13:20:30.667Z,60.34
2018-10-05T13:23:34.267Z,62.84
2018-10-05T13:26:37.886Z,64.80
2018-10-05T13:29:41.525Z,62.84
2018-10-05T13:32:45.240Z,64.53
2018-10-05T13:35:48.800Z,63.58
2018-10-05T13:38:52.430Z,62.31
2018-10-05T13:41:56.165Z,60.98
2018-10-05T13:44:59.728Z,61.81
2018-10-05T13:48:03.299Z,60.30
2018-10-05T13:51:07.005Z,64.87
2018-10-05T13:54:10.600Z,60.69
2018-10-05T13:57:14.220Z,59.39
2018-10-05T14:00:17.827Z,61.15
2018-10-05T14:03:21.479Z,63.16
2018-10-05T14:06:25.168Z,63.99
2018-10-05T14:09:28.759Z,62.70
2018-10-05T14:12:32.330Z,61.76
2018-10-05T14:15:35.974Z,59.53
2018-10-05T14:18:39.563Z,63.09
2018-10-05T14:21:43.255Z,60.27
2018-10-05T14:24:46.884Z,60.93
2018-10-05T14:27:50.476Z,61.95
2018-10-05T14:30:54.034Z,59.66
2018-10-05T14:33:57.664Z,60.50
2018-10-05T14:37:01.224Z,61.50
2018-10-05T14:40:05.136Z,62.42
2018-10-05T14:43:08.676Z,61.76
2018-10-05T14:46:12.336Z,62.42
2018-10-05T14:49:16.116Z,61.02
2018-10-05T14:52:23.945Z,62.62
2018-10-05T14:55:27.636Z,61.00
2018-10-05T14:58:31.209Z,61.81
2018-10-05T15:01:34.916Z,63.16
2018-10-05T15:04:38.626Z,63.71
2018-10-05T15:07:42.204Z,62.26
2018-10-05T15:10:46.031Z,59.06
2018-10-05T15:13:49.701Z,62.68
2018-10-05T15:16:53.377Z,63.76
2018-10-05T15:19:56.994Z,63.28
2018-10-05T15:23:00.665Z,64.66
2018-10-05T15:26:04.269Z,67.32
2018-10-05T15:29:07.897Z,66.10
2018-10-05T15:32:11.514Z,65.45
2018-10-05T15:35:15.097Z,64.51
2018-10-05T15:38:18.699Z,63.73
2018-10-05T15:41:22.245Z,66.24
2018-10-05T15:44:25.865Z,64.74
2018-10-05T15:47:29.413Z,67.60
2018-10-05T15:50:33.041Z,66.91
2018-10-05T15:53:36.893Z,68.42
2018-10-05T15:56:40.454Z,70.47
2018-10-05T15:59:44.073Z,70.15
2018-10-05T16:02:47.640Z,70.11
2018-10-05T16:05:51.464Z,71.97
2018-10-05T16:08:55.020Z,73.17
2018-10-05T16:11:58.672Z,71.75
2018-10-05T16:15:02.324Z,71.92
2018-10-05T16:18:05.970Z,73.51
2018-10-05T16:21:09.571Z,74.19
2018-10-05T16:24:21.375Z,70.85
2018-10-05T16:27:24.985Z,72.80
2018-10-05T16:30:28.644Z,73.37
2018-10-05T16:33:32.292Z,73.31
2018-10-05T16:36:35.877Z,74.15
2018-10-05T16:39:39.613Z,74.68
2018-10-05T16:42:43.391Z,74.90
2018-10-05T16:45:47.023Z,71.65
2018-10-05T16:48:50.668Z,73.90
2018-10-05T16:51:54.383Z,74.77
2018-10-05T16:54:58.068Z,72.97
2018-10-05T16:58:01.763Z,70.09
2018-10-05T17:01:05.378Z,71.82
2018-10-05T17:04:08.946Z,69.91
2018-10-05T17:07:12.536Z,70.98
2018-10-05T17:10:16.123Z,70.90
2018-10-05T17:13:19.722Z,73.40
2018-10-05T17:16:23.307Z,72.56
2018-10-05T17:19:27.044Z,72.05
2018-10-05T17:22:30.681Z,72.11
2018-10-05T17:25:34.316Z,72.78
2018-10-05T17:28:38.034Z,73.99
2018-10-05T17:31:41.712Z,72.41
2018-10-05T17:34:45.349Z,73.06
2018-10-05T17:37:49.235Z,75.04
2018-10-05T17:40:53.029Z,74.69
2018-10-05T17:43:56.630Z,72.92
2018-10-05T17:47:00.285Z,74.33
2018-10-05T17:50:04.303Z,75.24
2018-10-05T17:53:08.032Z,74.46
2018-10-05T17:56:11.753Z,76.22
2018-10-05T17:59:15.269Z,77.16
2018-10-05T18:02:19.094Z,77.07
2018-10-05T18:05:22.830Z,74.87
2018-10-05T18:08:26.684Z,75.38
2018-10-05T18:11:30.282Z,74.82
2018-10-05T18:14:34.007Z,75.17
2018-10-05T18:17:38.144Z,76.49
2018-10-05T18:20:41.858Z,75.58
2018-10-05T18:23:45.455Z,76.31
2018-10-05T18:26:49.122Z,77.67
2018-10-05T18:29:52.734Z,74.14
2018-10-05T18:32:56.479Z,73.52
2018-10-05T18:36:00.192Z,72.47
2018-10-05T18:39:05.060Z,73.34
2018-10-05T18:42:08.708Z,72.78
2018-10-05T18:45:12.392Z,69.41
2018-10-05T18:48:16.060Z,67.56
2018-10-05T18:51:20.006Z,68.45
2018-10-05T18:54:23.686Z,69.80
2018-10-05T18:57:27.726Z,70.11
2018-10-05T19:00:31.405Z,72.85
2018-10-05T19:03:35.118Z,72.83
2018-10-05T19:06:39.041Z,74.36
2018-10-05T19:09:43.003Z,74.57
2018-10-05T19:12:46.663Z,75.46
2018-10-05T19:15:50.338Z,73.85
2018-10-05T19:18:54.133Z,72.85
2018-10-05T19:21:57.724Z,72.30
2018-10-05T19:25:01.680Z,74.49
2018-10-05T19:28:05.334Z,75.85
2018-10-05T19:31:09.099Z,75.49
2018-10-05T19:34:12.906Z,74.55
2018-10-05T19:37:16.504Z,75.03
2018-10-05T19:40:20.287Z,74.59
2018-10-05T19:43:23.970Z,73.30
2018-10-05T19:46:27.910Z,71.09
2018-10-05T19:49:31.780Z,70.30
2018-10-05T19:52:35.699Z,70.65
2018-10-05T19:55:39.452Z,71.22
2018-10-05T19:58:43.183Z,70.96
2018-10-05T20:01:47.033Z,71.35
2018-10-05T20:04:51.674Z,69.96
2018-10-05T20:07:55.382Z,70.40
2018-10-05T20:10:59.091Z,70.34
2018-10-05T20:14:02.710Z,71.99
2018-10-05T20:17:06.660Z,73.54
2018-10-05T20:20:10.383Z,73.46
2018-10-05T20:23:14.100Z,72.92
2018-10-05T20:26:17.682Z,71.28
2018-10-05T20:29:21.415Z,70.66
2018-10-05T20:32:25.171Z,70.65
2018-10-05T20:35:28.927Z,67.05
2018-10-05T20:38:32.649Z,68.67
2018-10-05T20:41:36.786Z,69.39
2018-10-05T20:44:40.624Z,70.42
2018-10-05T20:47:44.230Z,70.73
2018-10-05T20:50:48.083Z,70.29
2018-10-05T20:53:51.974Z,69.34
2018-10-05T20:56:55.670Z,69.34
2018-10-05T20:59:59.445Z,67.52
2018-10-05T21:03:03.489Z,69.86
2018-10-05T21:06:07.283Z,69.20
2018-10-05T21:09:11.397Z,72.50
2018-10-05T21:12:15.011Z,72.01
2018-10-05T21:15:18.844Z,70.56
2018-10-05T21:18:22.443Z,70.08
2018-10-05T21:21:26.043Z,69.50
2018-10-05T21:24:29.639Z,70.34
2018-10-05T21:27:33.410Z,69.38
2018-10-05T21:30:37.126Z,69.56
2018-10-05T21:33:42.172Z,69.43
2018-10-05T21:36:45.801Z,71.29
2018-10-05T21:39:49.355Z,71.28
2018-10-05T21:42:52.991Z,70.23
2018-10-05T21:45:56.758Z,70.44
2018-10-05T21:49:00.468Z,71.66
2018-10-05T21:52:04.383Z,71.01
2018-10-05T21:55:07.988Z,71.27
2018-10-05T21:58:11.627Z,71.82
2018-10-05T22:01:15.422Z,72.61
2018-10-05T22:04:19.231Z,73.06
2018-10-05T22:07:23.190Z,74.33
2018-10-05T22:10:26.720Z,74.39
2018-10-05T22:13:30.587Z,74.25
2018-10-05T22:16:34.353Z,72.98
2018-10-05T22:19:38.189Z,73.70
2018-10-05T22:22:41.667Z,72.12
2018-10-05T22:25:53.890Z,71.82
2018-10-05T22:28:57.682Z,73.98
2018-10-05T22:32:01.462Z,75.84
2018-10-05T22:35:05.350Z,75.29
2018-10-05T22:38:09.220Z,74.39
2018-10-05T22:41:12.812Z,74.14
2018-10-05T22:44:16.423Z,75.59
2018-10-05T22:47:20.012Z,76.20
2018-10-05T22:50:23.566Z,77.45
2018-10-05T22:53:27.321Z,77.73
2018-10-05T22:56:30.924Z,79.08
2018-10-05T22:59:34.580Z,78.29
2018-10-05T23:02:38.283Z,78.74
2018-10-05T23:05:41.857Z,78.81
2018-10-05T23:08:45.509Z,79.62
2018-10-05T23:11:49.281Z,79.68
2018-10-05T23:14:53.031Z,80.44
2018-10-05T23:17:56.692Z,79.77
2018-10-05T23:21:00.256Z,78.85
2018-10-05T23:24:04.010Z,78.76
2018-10-05T23:27:07.736Z,77.84
2018-10-05T23:30:11.312Z,77.39
2018-10-05T23:33:15.111Z,78.30
2018-10-05T23:36:18.706Z,79.71
2018-10-05T23:39:22.258Z,79.63
2018-10-05T23:42:25.825Z,79.09
2018-10-05T23:45:29.351Z,78.19
2018-10-05T23:48:32.917Z,79.63
2018-10-05T23:51:37.376Z,80.66
2018-10-05T23:54:40.950Z,79.70
2018-10-05T23:57:44.783Z,79.99
